Time;durP1;ratioP1;P1;durP2;ratioP2;P2;SDS_P1;SDS_P2;PMS_P1;PMS_P2;Temp;Humidity;BMP_temperature;BMP_pressure;BME280_temperature;BME280_humidity;BME280_pressure;Samples;Min_cycle;Max_cycle;Signal;HPM_P1;HPM_P2
2022/03/29 00:01:00;;;;;;;13.90;7.40;;;;;;;11.75;43.56;96491.66;5075016;28;20205;-69
2022/03/29 00:03:25;;;;;;;12.50;7.13;;;;;;;11.81;43.13;96487.28;5074898;28;20181;-69
2022/03/29 00:05:51;;;;;;;18.23;7.50;;;;;;;11.76;43.67;96490.59;5074851;28;20185;-70
2022/03/29 00:08:16;;;;;;;12.63;7.07;;;;;;;11.86;44.00;96475.00;5074808;28;20177;-68
2022/03/29 00:10:42;;;;;;;13.20;8.27;;;;;;;11.89;43.99;96478.97;5074853;28;20189;-70
2022/03/29 00:13:07;;;;;;;9.50;7.03;;;;;;;11.82;43.96;96473.88;5075093;28;20178;-69
2022/03/29 00:15:33;;;;;;;12.17;7.53;;;;;;;11.84;44.04;96474.44;5074686;28;20190;-70
2022/03/29 00:17:59;;;;;;;14.97;7.40;;;;;;;11.81;44.17;96463.63;5074990;28;20185;-70
2022/03/29 00:20:24;;;;;;;13.73;7.33;;;;;;;11.77;44.25;96458.06;5074787;28;20223;-70
2022/03/29 00:22:50;;;;;;;12.23;7.63;;;;;;;11.81;44.22;96461.00;5074712;28;20177;-69
2022/03/29 00:25:16;;;;;;;12.03;7.00;;;;;;;11.74;44.37;96453.31;5074771;28;20185;-70
2022/03/29 00:27:42;;;;;;;12.47;7.30;;;;;;;11.66;44.27;96451.03;5035203;28;1144393;-69
2022/03/29 00:30:11;;;;;;;14.83;7.60;;;;;;;11.68;44.22;96444.53;5075699;28;20197;-70
2022/03/29 00:32:40;;;;;;;10.73;6.93;;;;;;;11.64;44.19;96447.88;5075093;28;20186;-70
2022/03/29 00:35:07;;;;;;;10.87;6.50;;;;;;;11.67;43.68;96439.50;5075930;28;20203;-69
2022/03/29 00:37:33;;;;;;;13.27;7.07;;;;;;;11.77;43.03;96438.88;5075335;28;20630;-70
2022/03/29 00:39:58;;;;;;;10.27;6.93;;;;;;;11.71;43.62;96437.97;5075139;28;20207;-70
2022/03/29 00:42:23;;;;;;;12.30;7.60;;;;;;;11.70;43.68;96433.00;5057619;28;20185;-69
2022/03/29 00:44:49;;;;;;;10.63;6.47;;;;;;;11.72;44.08;96430.91;5073707;28;20203;-69
2022/03/29 00:47:15;;;;;;;10.17;6.67;;;;;;;11.54;44.34;96427.50;5075557;28;20196;-69
2022/03/29 00:49:40;;;;;;;16.30;7.07;;;;;;;11.51;44.64;96428.00;5057340;28;20188;-70
2022/03/29 00:52:07;;;;;;;14.57;6.23;;;;;;;11.48;44.47;96423.22;5075035;28;20177;-70
2022/03/29 00:54:35;;;;;;;11.00;7.20;;;;;;;11.43;44.96;96419.72;5074986;28;20213;-69
2022/03/29 00:57:03;;;;;;;10.00;6.30;;;;;;;11.52;44.83;96413.06;5075213;28;20189;-69
2022/03/29 00:59:29;;;;;;;10.30;6.80;;;;;;;11.47;44.63;96413.78;5057349;28;20204;-69
2022/03/29 01:01:58;;;;;;;14.63;7.00;;;;;;;11.46;44.47;96409.56;5074993;28;20193;-70
2022/03/29 01:04:28;;;;;;;11.47;7.37;;;;;;;11.44;44.39;96419.50;5075088;28;20182;-69
2022/03/29 01:06:58;;;;;;;10.87;7.23;;;;;;;11.44;44.13;96405.59;5074964;28;20196;-70
2022/03/29 01:09:29;;;;;;;10.80;6.87;;;;;;;11.46;44.20;96408.78;5075182;28;20257;-68
2022/03/29 01:11:55;;;;;;;9.20;6.57;;;;;;;11.41;44.71;96401.63;5056929;28;20547;-69
2022/03/29 01:14:22;;;;;;;10.93;6.37;;;;;;;11.26;44.63;96396.13;5057183;28;20184;-69
2022/03/29 01:19:33;;;;;;;12.57;7.43;;;;;;;11.25;44.66;96392.75;5075037;28;20250;-70
2022/03/29 01:22:01;;;;;;;12.47;6.93;;;;;;;11.14;44.90;96401.50;5040241;28;20267;-69
2022/03/29 01:24:27;;;;;;;10.40;7.30;;;;;;;11.13;45.26;96389.41;5075194;28;20230;-69
2022/03/29 01:26:56;;;;;;;8.83;6.50;;;;;;;11.24;44.63;96382.47;5074619;28;20661;-69
2022/03/29 01:29:22;;;;;;;12.63;7.57;;;;;;;11.27;44.90;96372.28;5074623;28;20201;-69
2022/03/29 01:31:51;;;;;;;10.47;6.87;;;;;;;11.25;44.58;96374.38;5074163;28;20205;-70
2022/03/29 01:34:18;;;;;;;9.10;6.80;;;;;;;11.09;44.96;96371.78;5056896;28;20227;-69
2022/03/29 01:36:44;;;;;;;14.73;7.80;;;;;;;11.16;44.65;96373.19;5074509;28;20189;-69
2022/03/29 01:39:09;;;;;;;18.87;7.73;;;;;;;11.19;44.25;96358.81;5074758;28;20210;-69
2022/03/29 01:41:35;;;;;;;14.70;7.77;;;;;;;11.27;44.43;96366.25;5056447;28;20224;-70
2022/03/29 01:44:00;;;;;;;11.97;7.30;;;;;;;11.26;43.96;96352.34;5067263;28;20215;-70
2022/03/29 01:46:26;;;;;;;13.47;7.53;;;;;;;11.20;44.03;96347.28;5074507;28;20522;-68
2022/03/29 01:48:51;;;;;;;12.97;7.50;;;;;;;11.19;44.14;96345.69;5074219;28;20193;-68
2022/03/29 01:51:17;;;;;;;11.90;7.40;;;;;;;11.15;44.42;96344.56;5074578;28;20591;-67
2022/03/29 01:53:46;;;;;;;12.83;7.50;;;;;;;11.15;44.63;96340.09;5073926;28;20257;-68
2022/03/29 01:56:11;;;;;;;12.17;7.50;;;;;;;10.99;44.92;96332.25;5074247;28;20201;-67
2022/03/29 01:58:37;;;;;;;12.93;7.83;;;;;;;10.94;45.19;96338.22;5074394;28;20200;-68
2022/03/29 02:01:03;;;;;;;11.50;7.40;;;;;;;10.94;45.09;96332.19;5074393;28;20220;-68
2022/03/29 02:03:28;;;;;;;16.03;7.67;;;;;;;10.97;44.80;96334.34;5079303;28;20245;-68
2022/03/29 02:05:54;;;;;;;16.57;7.90;;;;;;;10.94;44.79;96324.31;5062499;28;20665;-69
2022/03/29 02:08:20;;;;;;;12.93;7.67;;;;;;;10.89;45.15;96329.50;5074508;28;20185;-68
2022/03/29 02:10:45;;;;;;;11.10;7.40;;;;;;;10.86;45.39;96322.91;5074222;28;20185;-69
2022/03/29 02:13:11;;;;;;;16.80;7.77;;;;;;;10.87;44.82;96328.94;5073847;28;20235;-69
2022/03/29 02:15:38;;;;;;;12.50;8.13;;;;;;;10.90;45.11;96317.97;5074182;28;20703;-69
2022/03/29 02:18:04;;;;;;;12.27;7.60;;;;;;;10.80;44.88;96316.00;5073217;28;20657;-68
2022/03/29 02:20:30;;;;;;;12.73;7.57;;;;;;;10.69;45.37;96314.25;5073829;28;20207;-69
2022/03/29 02:23:00;;;;;;;13.67;7.20;;;;;;;10.66;45.60;96305.03;5074390;28;20185;-69
2022/03/29 02:25:25;;;;;;;11.27;7.40;;;;;;;10.66;45.08;96309.47;5073819;28;20180;-69
2022/03/29 02:27:51;;;;;;;10.77;7.63;;;;;;;10.78;44.47;96307.56;5073982;28;20580;-68
2022/03/29 02:30:16;;;;;;;15.30;7.47;;;;;;;10.75;44.97;96306.25;5073803;28;20611;-69
2022/03/29 02:32:43;;;;;;;13.53;7.50;;;;;;;10.77;44.71;96295.50;5073527;28;20230;-67
2022/03/29 02:35:08;;;;;;;10.53;7.77;;;;;;;10.77;44.71;96287.63;5073532;28;20642;-69
2022/03/29 02:37:34;;;;;;;11.10;7.57;;;;;;;10.54;44.95;96299.06;5073191;28;20189;-68
2022/03/29 02:40:00;;;;;;;11.50;7.13;;;;;;;10.74;44.68;96295.97;5055642;28;20203;-68
2022/03/29 02:42:25;;;;;;;10.67;7.20;;;;;;;10.68;45.01;96294.31;5072019;28;20194;-69
2022/03/29 02:44:50;;;;;;;10.97;7.53;;;;;;;10.69;44.63;96294.09;5055582;28;20642;-68
2022/03/29 02:47:16;;;;;;;18.63;7.80;;;;;;;10.66;44.59;96291.94;5073848;28;20189;-68
2022/03/29 02:49:41;;;;;;;9.63;7.63;;;;;;;10.66;45.06;96289.31;5072830;28;20196;-68
2022/03/29 02:52:07;;;;;;;13.17;8.30;;;;;;;10.66;44.38;96281.44;5073436;28;20219;-68
2022/03/29 02:54:32;;;;;;;9.90;7.30;;;;;;;10.56;44.56;96288.34;5073204;28;20185;-69
2022/03/29 02:56:58;;;;;;;15.80;8.47;;;;;;;10.62;44.82;96290.03;5073283;28;20188;-68
2022/03/29 02:59:23;;;;;;;11.17;7.57;;;;;;;10.65;44.58;96289.53;5072677;28;20205;-69
2022/03/29 03:01:48;;;;;;;10.77;7.47;;;;;;;10.48;44.89;96279.06;5072853;28;20189;-69
2022/03/29 03:04:14;;;;;;;17.40;7.83;;;;;;;10.54;44.73;96283.34;5055487;28;20188;-69
2022/03/29 03:06:41;;;;;;;9.73;7.30;;;;;;;10.51;44.57;96277.78;5072866;28;20199;-69
2022/03/29 03:09:07;;;;;;;10.83;7.20;;;;;;;10.57;44.38;96274.22;5072883;28;20239;-68
2022/03/29 03:11:32;;;;;;;16.67;7.10;;;;;;;10.61;44.62;96270.09;5072876;28;20174;-69
2022/03/29 03:13:57;;;;;;;10.63;7.33;;;;;;;10.48;44.61;96275.66;5072636;28;20264;-70
2022/03/29 03:16:23;;;;;;;10.97;6.90;;;;;;;10.53;44.84;96273.91;5073115;28;20743;-69
2022/03/29 03:18:48;;;;;;;10.70;7.60;;;;;;;10.50;44.62;96269.13;5073227;28;20591;-68
2022/03/29 03:21:14;;;;;;;10.53;7.27;;;;;;;10.56;44.66;96262.94;5073066;28;20541;-68
2022/03/29 03:23:39;;;;;;;12.13;7.50;;;;;;;10.49;44.52;96266.75;5072735;28;20185;-68
2022/03/29 03:26:05;;;;;;;11.53;7.27;;;;;;;10.40;45.10;96259.31;5072637;28;20688;-68
2022/03/29 03:28:31;;;;;;;12.17;7.20;;;;;;;10.36;44.86;96254.78;5071598;28;20208;-69
2022/03/29 03:30:56;;;;;;;12.70;7.23;;;;;;;10.45;44.96;96257.78;5072621;28;20228;-68
2022/03/29 03:33:21;;;;;;;8.67;7.07;;;;;;;10.38;44.88;96252.69;5072749;28;20246;-69
2022/03/29 03:35:47;;;;;;;12.23;7.77;;;;;;;10.31;45.40;96245.00;5072306;28;20185;-69
2022/03/29 03:38:12;;;;;;;11.77;7.17;;;;;;;10.35;45.04;96248.75;5072487;28;20193;-68
2022/03/29 03:40:38;;;;;;;12.00;7.03;;;;;;;10.39;44.75;96247.22;5072442;28;20695;-68
2022/03/29 03:43:03;;;;;;;13.00;6.63;;;;;;;10.34;45.06;96244.53;5061575;28;20289;-68
2022/03/29 03:45:29;;;;;;;12.30;7.33;;;;;;;10.30;45.20;96240.81;5068244;28;20189;-68
2022/03/29 03:47:55;;;;;;;12.43;7.60;;;;;;;10.19;45.48;96230.41;5072118;28;20193;-69
2022/03/29 03:50:20;;;;;;;8.90;7.00;;;;;;;10.16;45.76;96236.06;5072079;28;20185;-69
2022/03/29 03:52:46;;;;;;;13.47;8.00;;;;;;;10.12;45.79;96233.13;5072553;28;20625;-68
2022/03/29 03:55:12;;;;;;;14.40;7.50;;;;;;;10.12;45.90;96225.28;5071221;28;20192;-68
2022/03/29 03:57:37;;;;;;;11.60;7.13;;;;;;;10.21;45.88;96223.09;5072663;28;20191;-68
2022/03/29 04:00:06;;;;;;;11.97;7.27;;;;;;;10.30;45.64;96216.44;5072176;28;20600;-68
2022/03/29 04:02:32;;;;;;;11.70;7.97;;;;;;;10.19;45.80;96220.72;5071973;28;20212;-68
2022/03/29 04:04:57;;;;;;;13.13;7.57;;;;;;;10.20;45.69;96218.88;5072271;28;20185;-68
2022/03/29 04:07:22;;;;;;;11.97;7.27;;;;;;;10.12;46.19;96240.19;5072046;28;20633;-68
2022/03/29 04:09:48;;;;;;;11.27;7.13;;;;;;;9.88;47.36;96239.53;5072445;28;20185;-68
2022/03/29 04:12:13;;;;;;;13.10;7.57;;;;;;;9.59;47.80;96241.34;5072356;28;20177;-68
2022/03/29 04:14:39;;;;;;;12.27;6.90;;;;;;;9.61;48.06;96231.44;5072315;28;20205;-68
2022/03/29 04:17:05;;;;;;;13.30;7.47;;;;;;;9.56;48.54;96236.59;5072058;28;20276;-68
2022/03/29 04:19:30;;;;;;;12.47;8.00;;;;;;;9.44;49.17;96233.22;5072254;28;20210;-71
2022/03/29 04:21:55;;;;;;;12.27;7.43;;;;;;;9.44;49.25;96235.84;5071893;28;20243;-70
2022/03/29 04:24:21;;;;;;;9.03;6.90;;;;;;;9.41;49.15;96231.09;5072437;28;20631;-68
2022/03/29 04:26:47;;;;;;;11.60;7.23;;;;;;;9.21;50.24;96226.22;5072213;28;20221;-69
2022/03/29 04:29:12;;;;;;;14.93;7.43;;;;;;;9.37;50.12;96222.09;5071724;28;20193;-68
2022/03/29 04:31:38;;;;;;;10.37;7.07;;;;;;;9.22;50.67;96225.22;5071259;28;20189;-68
2022/03/29 04:34:05;;;;;;;11.63;8.13;;;;;;;9.32;50.12;96220.19;5070741;28;20747;-68
2022/03/29 04:36:31;;;;;;;14.32;8.75;;;;;;;9.71;49.43;96223.78;5070813;28;20387;-68
2022/03/29 04:38:57;;;;;;;11.27;7.60;;;;;;;9.35;49.95;96219.72;5070929;28;20402;-69
2022/03/29 04:41:24;;;;;;;11.82;7.88;;;;;;;9.39;50.27;96222.66;5072244;28;20487;-69
2022/03/29 04:43:49;;;;;;;11.53;7.40;;;;;;;9.39;50.06;96215.63;5074436;28;20388;-69
2022/03/29 04:46:15;;;;;;;10.80;7.60;;;;;;;9.26;50.29;96217.69;5074208;28;20434;-70
2022/03/29 04:48:40;;;;;;;9.95;6.97;;;;;;;9.35;50.64;96217.13;5056123;28;20624;-68
2022/03/29 04:51:06;;;;;;;11.57;7.87;;;;;;;9.32;50.77;96214.94;5073607;28;20706;-69
2022/03/29 04:53:32;;;;;;;12.07;7.82;;;;;;;9.27;51.19;96214.06;5074117;28;20387;-69
2022/03/29 04:55:57;;;;;;;11.77;8.23;;;;;;;9.19;51.54;96215.22;5039034;28;20457;-70
2022/03/29 04:58:24;;;;;;;11.13;7.80;;;;;;;9.22;51.31;96219.19;5056193;28;20725;-69
2022/03/29 05:00:50;;;;;;;11.73;7.90;;;;;;;9.09;51.74;96215.00;5073155;28;20409;-69
2022/03/29 05:03:15;;;;;;;10.87;7.67;;;;;;;9.09;51.18;96207.16;5073309;28;20474;-70
2022/03/29 05:05:41;;;;;;;9.75;7.65;;;;;;;9.12;50.79;96209.31;5073682;28;20855;-69
2022/03/29 05:08:07;;;;;;;11.43;7.57;;;;;;;9.27;50.94;96214.84;5074014;28;20752;-69
2022/03/29 05:10:32;;;;;;;9.52;7.50;;;;;;;9.32;50.83;96204.47;5055729;28;20890;-68
2022/03/29 05:12:58;;;;;;;10.70;7.90;;;;;;;9.44;50.29;96205.25;5055789;28;20448;-69
2022/03/29 05:15:23;;;;;;;10.27;7.63;;;;;;;9.36;50.41;96200.38;5073142;28;20383;-69
2022/03/29 05:17:49;;;;;;;10.80;6.93;;;;;;;9.42;50.34;96196.03;5073779;28;20959;-71
2022/03/29 05:20:16;;;;;;;13.43;8.27;;;;;;;9.33;50.98;96200.06;5074169;28;20408;-68
2022/03/29 05:22:52;;;;;;;12.48;8.10;;;;;;;9.45;50.99;96200.81;5073905;28;20380;-68
2022/03/29 05:25:21;;;;;;;12.38;8.18;;;;;;;9.60;50.09;96199.25;5074236;28;20406;-70
2022/03/29 05:27:47;;;;;;;10.95;7.80;;;;;;;9.59;50.21;96205.50;5074089;28;20411;-71
2022/03/29 05:30:14;;;;;;;12.02;8.63;;;;;;;9.49;50.82;96201.94;5074516;28;20384;-69
2022/03/29 05:32:39;;;;;;;12.93;8.67;;;;;;;9.62;50.27;96208.69;5073676;28;20403;-69
2022/03/29 05:35:08;;;;;;;13.80;8.83;;;;;;;9.74;50.42;96212.88;5074003;28;20388;-69
2022/03/29 05:37:34;;;;;;;14.73;8.48;;;;;;;10.16;49.64;96209.88;5057995;28;20407;-70
2022/03/29 05:39:59;;;;;;;13.63;8.48;;;;;;;9.97;49.85;96217.94;5073768;28;20412;-70
2022/03/29 05:42:25;;;;;;;13.77;8.20;;;;;;;10.01;49.59;96216.47;5052640;28;20466;-70
2022/03/29 05:44:50;;;;;;;12.23;8.32;;;;;;;9.95;49.71;96211.38;5055895;28;20423;-68
2022/03/29 05:50:00;;;;;;;10.98;8.13;;;;;;;10.28;49.08;96197.53;5074258;28;20402;-70
2022/03/29 05:52:25;;;;;;;10.67;8.10;;;;;;;10.38;49.01;96208.97;5074478;28;20391;-70
2022/03/29 05:54:51;;;;;;;11.02;8.13;;;;;;;10.33;49.25;96203.66;5062386;28;20409;-70
2022/03/29 05:57:17;;;;;;;10.50;7.77;;;;;;;10.54;49.01;96204.72;5075716;28;20395;-70
2022/03/29 05:59:46;;;;;;;12.80;8.75;;;;;;;10.21;49.56;96202.94;5073813;28;20411;-69
2022/03/29 06:02:11;;;;;;;13.43;8.20;;;;;;;10.59;48.93;96202.19;5073720;28;20396;-69
2022/03/29 06:04:38;;;;;;;14.07;8.45;;;;;;;10.70;47.89;96195.28;5074174;28;20395;-69
2022/03/29 06:07:04;;;;;;;11.00;8.50;;;;;;;10.65;48.33;96189.94;5073391;28;20384;-69
2022/03/29 06:09:31;;;;;;;11.98;8.15;;;;;;;10.69;48.35;96188.44;5072308;28;20431;-70
2022/03/29 06:11:56;;;;;;;14.90;8.63;;;;;;;10.87;47.85;96193.38;5072135;28;20399;-70
2022/03/29 06:14:22;;;;;;;12.03;8.20;;;;;;;11.07;47.51;96190.25;5054546;28;20404;-70
2022/03/29 06:16:47;;;;;;;12.83;9.13;;;;;;;11.10;47.66;96195.00;5072775;28;20468;-70
2022/03/29 06:19:13;;;;;;;13.88;9.18;;;;;;;11.04;48.17;96201.22;5072161;28;20519;-69
2022/03/29 06:21:40;;;;;;;14.23;8.70;;;;;;;11.19;47.68;96204.84;5072353;28;20427;-69
2022/03/29 06:24:07;;;;;;;15.85;8.88;;;;;;;11.51;47.27;96197.06;5072091;28;20454;-69
2022/03/29 06:26:36;;;;;;;13.93;8.82;;;;;;;11.59;46.61;96203.72;5071840;28;20416;-70
2022/03/29 06:29:03;;;;;;;12.73;8.90;;;;;;;11.68;46.18;96202.22;5072077;28;20406;-70
2022/03/29 06:31:28;;;;;;;12.10;8.30;;;;;;;11.53;46.21;96207.31;5053446;28;20434;-70
2022/03/29 06:33:53;;;;;;;13.27;9.00;;;;;;;11.68;46.35;96210.09;5071923;28;20424;-70
2022/03/29 06:36:19;;;;;;;12.48;8.77;;;;;;;11.78;45.80;96212.03;5071446;28;20543;-70
2022/03/29 06:38:44;;;;;;;11.93;8.60;;;;;;;11.83;45.86;96214.72;5053339;28;20899;-69
2022/03/29 06:41:10;;;;;;;12.80;8.73;;;;;;;11.87;45.52;96208.72;5070535;28;20460;-72
2022/03/29 06:43:36;;;;;;;14.07;8.60;;;;;;;11.33;46.70;96213.13;5072694;28;20483;-72
2022/03/29 06:46:03;;;;;;;16.25;9.13;;;;;;;11.42;46.59;96208.25;5071558;28;20400;-73
2022/03/29 06:48:29;;;;;;;12.80;8.50;;;;;;;11.50;46.50;96219.09;5071802;28;20487;-71
2022/03/29 06:50:55;;;;;;;13.20;8.73;;;;;;;11.71;46.13;96208.78;5056169;28;20461;-71
2022/03/29 06:53:20;;;;;;;12.35;9.02;;;;;;;12.14;45.33;96218.44;5074134;28;20487;-71
2022/03/29 06:55:46;;;;;;;12.87;9.00;;;;;;;12.32;44.31;96218.81;5073317;28;20403;-71
2022/03/29 06:58:11;;;;;;;14.02;9.45;;;;;;;12.67;43.66;96214.88;5070521;28;20440;-71
2022/03/29 07:00:37;;;;;;;12.33;8.90;;;;;;;12.43;44.32;96223.13;5070954;28;20777;-72
2022/03/29 07:03:02;;;;;;;15.25;9.05;;;;;;;12.50;43.79;96220.28;5061846;28;20383;-71
2022/03/29 07:05:28;;;;;;;13.67;9.37;;;;;;;12.77;43.27;96220.97;5070874;28;20399;-72
2022/03/29 07:07:54;;;;;;;13.77;9.15;;;;;;;12.44;44.05;96218.66;5071303;28;20438;-71
2022/03/29 07:13:03;;;;;;;11.70;9.15;;;;;;;12.53;43.84;96221.63;5071321;28;20399;-72
2022/03/29 07:15:32;;;;;;;14.68;9.38;;;;;;;12.38;44.50;96222.28;5070503;28;20768;-72
2022/03/29 07:17:59;;;;;;;16.20;9.50;;;;;;;12.72;43.82;96218.31;5070113;28;20445;-72
2022/03/29 07:20:25;;;;;;;15.13;9.10;;;;;;;12.69;44.27;96215.41;5071008;28;20415;-71
2022/03/29 07:22:52;;;;;;;17.25;9.60;;;;;;;12.78;44.41;96214.69;5070618;28;21018;-72
2022/03/29 07:25:19;;;;;;;14.17;9.40;;;;;;;13.24;43.54;96207.84;5069884;28;20441;-72
2022/03/29 07:27:46;;;;;;;15.77;9.30;;;;;;;13.06;44.11;96204.84;5068315;28;20975;-72
2022/03/29 07:30:12;;;;;;;15.23;9.80;;;;;;;13.77;42.70;96205.88;5070860;28;20400;-72
2022/03/29 07:32:46;;;;;;;13.13;9.13;;;;;;;13.54;42.56;96199.25;5051590;28;20890;-72
2022/03/29 07:35:14;;;;;;;15.32;9.48;;;;;;;13.66;42.81;96204.28;5070780;28;20482;-72
2022/03/29 07:37:40;;;;;;;13.85;9.27;;;;;;;13.75;42.53;96210.66;5070597;28;20395;-72
2022/03/29 07:40:08;;;;;;;13.95;9.65;;;;;;;13.84;42.18;96203.81;5068625;28;20409;-72
2022/03/29 07:42:35;;;;;;;14.75;9.52;;;;;;;13.77;42.08;96205.09;5070358;28;20775;-72
2022/03/29 07:45:03;;;;;;;13.60;9.18;;;;;;;14.21;41.40;96208.84;5070858;28;20400;-72
2022/03/29 07:47:29;;;;;;;14.45;8.65;;;;;;;14.32;41.54;96193.84;5071063;28;20387;-72
2022/03/29 07:49:55;;;;;;;14.70;9.10;;;;;;;14.48;40.97;96195.44;5071030;28;20399;-71
2022/03/29 07:52:21;;;;;;;15.73;9.20;;;;;;;14.76;41.77;96202.00;5052479;28;20510;-72
2022/03/29 07:54:47;;;;;;;14.17;9.73;;;;;;;14.46;44.37;96200.19;5052406;28;20870;-72
2022/03/29 07:57:12;;;;;;;17.92;9.43;;;;;;;14.22;45.26;96204.34;5071629;28;20181;-72
2022/03/29 07:59:38;;;;;;;17.00;9.70;;;;;;;14.35;45.20;96198.56;5075749;28;20215;-72
2022/03/29 08:02:07;;;;;;;19.00;9.33;;;;;;;14.23;44.57;96200.66;5092667;28;20169;-72
2022/03/29 08:04:33;;;;;;;14.40;9.30;;;;;;;14.12;44.80;96195.41;5081997;28;20212;-71
2022/03/29 08:07:00;;;;;;;15.00;8.90;;;;;;;14.18;45.77;96198.84;5072193;28;20602;-72
2022/03/29 08:09:26;;;;;;;15.97;9.27;;;;;;;14.08;46.13;96191.72;5071988;28;20189;-72
2022/03/29 08:11:52;;;;;;;13.27;8.53;;;;;;;14.29;46.10;96194.34;5053735;28;20185;-71
2022/03/29 08:14:18;;;;;;;15.47;9.13;;;;;;;14.10;47.29;96202.78;5054121;28;20217;-72
2022/03/29 08:16:44;;;;;;;15.13;9.40;;;;;;;13.85;48.34;96199.31;5057890;28;20189;-71
2022/03/29 08:19:09;;;;;;;16.00;10.17;;;;;;;14.03;47.64;96201.47;5074840;28;20235;-72
2022/03/29 08:21:49;;;;;;;18.10;9.83;;;;;;;14.16;47.35;96207.00;5075280;28;20250;-72
2022/03/29 08:24:27;;;;;;;18.20;10.10;;;;;;;14.06;47.75;96207.00;5075616;28;20196;-71
2022/03/29 08:26:54;;;;;;;18.97;9.67;;;;;;;13.91;47.07;96211.47;5060991;28;20332;-72
2022/03/29 08:29:21;;;;;;;15.80;10.03;;;;;;;13.92;46.77;96202.50;5075652;28;20213;-71
2022/03/29 08:31:49;;;;;;;14.33;10.00;;;;;;;13.97;45.69;96199.88;5056486;28;20204;-72
2022/03/29 08:34:16;;;;;;;16.40;10.40;;;;;;;14.24;45.07;96207.53;5057455;28;20181;-72
2022/03/29 08:36:41;;;;;;;18.13;9.63;;;;;;;14.16;44.69;96207.00;5057383;28;20193;-71
2022/03/29 08:39:07;;;;;;;14.33;9.20;;;;;;;14.13;44.08;96202.25;5057125;28;20181;-71
2022/03/29 08:41:55;;;;;;;21.03;10.40;;;;;;;14.31;43.84;96197.53;5073350;28;20646;-71
2022/03/29 08:44:25;;;;;;;17.50;10.03;;;;;;;14.18;44.11;96203.31;5074930;28;20181;-71
2022/03/29 08:46:51;;;;;;;24.43;9.57;;;;;;;14.04;44.66;96200.41;5075168;28;20185;-72
2022/03/29 08:49:19;;;;;;;16.33;9.20;;;;;;;14.16;43.79;96207.00;5056293;28;20181;-71
2022/03/29 08:51:45;;;;;;;24.33;10.17;;;;;;;14.72;42.53;96203.56;5074682;28;20731;-73
2022/03/29 08:54:11;;;;;;;18.77;9.53;;;;;;;14.90;42.30;96211.72;5074645;28;20284;-72
2022/03/29 08:56:38;;;;;;;17.70;9.27;;;;;;;15.01;42.09;96198.47;5075103;28;20679;-72
2022/03/29 08:59:03;;;;;;;16.97;9.50;;;;;;;14.79;42.41;96199.59;5074755;28;20243;-72
2022/03/29 09:01:29;;;;;;;15.57;10.17;;;;;;;14.53;43.08;96198.06;5074860;28;20177;-71
2022/03/29 09:04:04;;;;;;;24.27;9.93;;;;;;;14.16;44.94;96199.09;5074825;28;20181;-71
2022/03/29 09:06:29;;;;;;;20.20;10.27;;;;;;;13.90;45.36;96197.50;5074332;28;20260;-71
2022/03/29 09:08:54;;;;;;;17.97;9.80;;;;;;;14.36;44.98;96198.31;5074796;28;20276;-71
2022/03/29 09:11:21;;;;;;;17.70;10.53;;;;;;;14.81;43.75;96196.69;5074699;28;20219;-71
2022/03/29 09:14:00;;;;;;;14.73;9.10;;;;;;;15.06;42.44;96191.34;5056464;28;20234;-70
2022/03/29 09:16:28;;;;;;;20.20;9.83;;;;;;;15.29;42.12;96192.56;5074319;28;20232;-70
2022/03/29 09:18:58;;;;;;;14.00;9.70;;;;;;;15.57;41.85;96193.81;5074367;28;20318;-70
2022/03/29 09:21:24;;;;;;;18.27;10.10;;;;;;;15.79;42.07;96199.50;5056658;28;20251;-69
2022/03/29 09:24:14;;;;;;;18.00;9.97;;;;;;;15.82;41.51;96196.31;5074490;28;20185;-71
2022/03/29 09:26:42;;;;;;;17.53;9.90;;;;;;;15.38;42.85;96199.66;5051461;28;20272;-70
2022/03/29 09:29:12;;;;;;;15.43;10.30;;;;;;;15.04;42.46;96192.69;5055875;28;20193;-72
2022/03/29 09:31:39;;;;;;;13.60;10.10;;;;;;;15.08;43.58;96191.88;5073461;28;20200;-72
2022/03/29 09:34:17;;;;;;;18.17;9.77;;;;;;;14.76;43.65;96194.88;5056523;28;20264;-71
2022/03/29 09:36:48;;;;;;;15.47;9.80;;;;;;;14.67;43.83;96183.25;5074010;28;20185;-72
2022/03/29 09:39:50;;;;;;;14.80;9.40;;;;;;;14.69;44.40;96185.63;5054926;28;20189;-69
2022/03/29 09:42:19;;;;;;;16.33;10.00;;;;;;;15.39;42.80;96177.47;4990963;28;20187;-69
2022/03/29 09:44:47;;;;;;;17.87;9.00;;;;;;;14.98;43.41;96176.06;5057361;28;20203;-69
2022/03/29 09:47:15;;;;;;;15.63;9.33;;;;;;;15.21;43.04;96178.06;5074077;28;20679;-71
2022/03/29 09:50:01;;;;;;;16.17;9.27;;;;;;;15.50;42.70;96172.94;5073322;28;20255;-71
2022/03/29 09:52:28;;;;;;;13.93;9.77;;;;;;;15.26;44.04;96169.38;5070021;28;20176;-70
2022/03/29 09:55:17;;;;;;;18.67;10.57;;;;;;;15.92;42.41;96171.66;5074201;28;20194;-70
2022/03/29 09:57:45;;;;;;;15.23;10.40;;;;;;;15.92;42.32;96169.03;5058427;28;20273;-70
2022/03/29 10:00:36;;;;;;;17.20;9.33;;;;;;;15.38;43.07;96161.91;5072142;28;20633;-70
2022/03/29 10:03:06;;;;;;;21.90;11.47;;;;;;;15.92;41.96;96167.16;5055349;28;20185;-70
2022/03/29 10:05:34;;;;;;;24.87;11.03;;;;;;;15.66;42.08;96165.75;5073674;28;20277;-70
2022/03/29 10:10:50;;;;;;;20.25;11.13;;;;;;;14.88;43.95;96147.06;5073111;28;20180;-70
2022/03/29 10:13:23;;;;;;;19.27;11.30;;;;;;;15.34;43.05;96147.66;5072512;28;20634;-69
2022/03/29 10:15:54;;;;;;;19.27;11.83;;;;;;;15.26;42.49;96140.31;5073383;28;20180;-69
2022/03/29 10:18:21;;;;;;;25.90;10.80;;;;;;;15.12;43.19;96142.75;5073391;28;20562;-69
2022/03/29 10:20:48;;;;;;;16.47;10.50;;;;;;;15.51;42.42;96129.63;5073554;28;20197;-70
2022/03/29 10:23:14;;;;;;;27.37;12.10;;;;;;;15.40;42.74;96133.38;5073518;28;20185;-71
2022/03/29 10:25:41;;;;;;;20.27;9.77;;;;;;;15.27;42.58;96128.69;5054827;28;20255;-70
2022/03/29 10:28:08;;;;;;;25.83;10.97;;;;;;;15.42;42.53;96122.53;5072979;28;20204;-70
2022/03/29 10:30:41;;;;;;;16.60;10.67;;;;;;;15.37;42.07;96118.88;5073224;28;20185;-70
2022/03/29 10:33:26;;;;;;;18.07;11.50;;;;;;;15.53;40.95;96116.97;5072690;28;20196;-69
2022/03/29 10:36:02;;;;;;;18.13;11.07;;;;;;;15.50;41.77;96111.38;5055258;28;20195;-70
2022/03/29 10:38:42;;;;;;;17.33;11.63;;;;;;;15.25;41.88;96107.06;5070254;28;20226;-71
2022/03/29 10:41:28;;;;;;;23.73;12.13;;;;;;;15.69;40.95;96107.06;5072961;28;20235;-69
2022/03/29 10:44:01;;;;;;;20.73;11.13;;;;;;;15.59;40.94;96105.31;5072922;28;20275;-70
2022/03/29 10:46:47;;;;;;;18.00;11.27;;;;;;;15.82;40.36;96092.47;5054693;28;20185;-70
2022/03/29 10:49:32;;;;;;;17.58;11.07;;;;;;;15.99;39.60;96087.56;5058951;28;20177;-70
2022/03/29 10:52:06;;;;;;;20.03;11.07;;;;;;;15.67;40.53;96073.00;5072736;28;20239;-70
2022/03/29 10:54:32;;;;;;;21.93;10.87;;;;;;;15.69;40.54;96070.09;5072798;28;20220;-70
2022/03/29 10:57:16;;;;;;;19.00;10.97;;;;;;;15.68;40.60;96065.88;5072260;28;20212;-70
2022/03/29 10:59:42;;;;;;;19.17;11.13;;;;;;;15.85;40.33;96063.63;5072481;28;20653;-70
2022/03/29 11:02:12;;;;;;;19.50;10.67;;;;;;;15.86;40.06;96045.91;5072500;28;20216;-69
2022/03/29 11:05:03;;;;;;;25.80;10.80;;;;;;;15.86;39.83;96045.91;5073122;28;20272;-70
2022/03/29 11:07:30;;;;;;;15.70;9.93;;;;;;;15.86;39.23;96040.63;5072612;28;20243;-70
2022/03/29 11:10:09;;;;;;;23.80;10.87;;;;;;;15.98;38.51;96036.56;5072744;28;20222;-69
2022/03/29 11:12:40;;;;;;;16.00;9.73;;;;;;;16.20;37.64;96030.78;5060754;28;20575;-69
2022/03/29 11:15:23;;;;;;;15.20;10.17;;;;;;;16.26;37.42;96029.66;5073195;28;20256;-69
2022/03/29 11:17:49;;;;;;;18.00;10.00;;;;;;;16.53;36.99;96034.38;5072682;28;20665;-69
2022/03/29 11:20:35;;;;;;;14.47;9.87;;;;;;;17.16;36.11;96047.38;5071701;28;20205;-70
2022/03/29 11:23:06;;;;;;;17.95;10.40;;;;;;;17.44;35.15;96033.22;5071397;28;20529;-69
2022/03/29 11:25:50;;;;;;;21.05;9.93;;;;;;;17.18;36.27;96035.44;5072284;28;20683;-70
2022/03/29 11:28:17;;;;;;;17.45;10.00;;;;;;;17.37;35.38;96035.44;5072391;28;20177;-70
2022/03/29 11:30:43;;;;;;;17.67;9.27;;;;;;;17.27;36.39;96040.88;5072119;28;20641;-70
2022/03/29 11:33:10;;;;;;;15.70;9.88;;;;;;;17.65;34.78;96034.50;5058255;28;20177;-69
2022/03/29 11:35:39;;;;;;;19.65;9.95;;;;;;;17.04;35.70;96029.28;5072279;28;20276;-69
2022/03/29 11:38:13;;;;;;;19.55;10.35;;;;;;;17.02;36.29;96028.75;5069808;28;20217;-69